Time;durP1;ratioP1;P1;durP2;ratioP2;P2;SDS_P1;SDS_P2;PMS_P1;PMS_P2;Temp;Humidity;BMP_temperature;BMP_pressure;BME280_temperature;BME280_humidity;BME280_pressure;Samples;Min_cycle;Max_cycle;Signal;HPM_P1;HPM_P2
2024/03/17 00:00:40;;;;;;;;;;;6.30;99.90;;;5.31;100.00;98587.69;4981210;28;1598;-69
2024/03/17 00:03:08;;;;;;;;;;;6.30;99.90;;;5.20;100.00;98592.91;4995054;28;1820;-69
2024/03/17 00:05:37;;;;;;;;;;;6.20;99.90;;;5.14;100.00;98592.94;4982169;28;1706;-69
2024/03/17 00:08:04;;;;;;;;;;;6.10;99.90;;;5.12;100.00;98583.53;4995036;28;1462;-69
2024/03/17 00:10:31;;;;;;;;;;;5.90;99.90;;;5.07;100.00;98586.13;4994494;28;1770;-69
2024/03/17 00:12:57;;;;;;;;;;;5.80;99.90;;;5.12;100.00;98586.94;4979083;28;1892;-69
2024/03/17 00:15:23;;;;;;;;;;;5.80;99.90;;;5.18;100.00;98579.19;4976360;28;1927;-69
2024/03/17 00:17:49;;;;;;;;;;;5.90;99.90;;;5.24;100.00;98586.03;4976130;28;1454;-69
2024/03/17 00:20:19;;;;;;;;;;;6.00;99.90;;;5.30;100.00;98587.72;4979103;28;1758;-70
2024/03/17 00:22:50;;;;;;;;;;;6.10;99.90;;;5.31;100.00;98581.69;4994179;28;1582;-69
2024/03/17 00:25:15;;;;;;;;;;;6.20;99.90;;;5.31;100.00;98581.69;4962638;28;1523;-69
2024/03/17 00:27:44;;;;;;;;;;;6.20;99.90;;;5.31;100.00;98572.25;4993874;28;2240;-70
2024/03/17 00:30:15;;;;;;;;;;;6.20;99.90;;;5.10;100.00;98572.38;4981261;28;1543;-70
2024/03/17 00:32:42;;;;;;;;;;;6.10;99.90;;;4.85;100.00;98572.47;4977880;28;1836;-69
2024/03/17 00:35:10;;;;;;;;;;;6.10;99.90;;;4.93;100.00;98572.47;4962627;28;1884;-69
2024/03/17 00:37:36;;;;;;;;;;;6.00;99.90;;;4.89;100.00;98576.75;4994060;28;1673;-69
2024/03/17 00:40:03;;;;;;;;;;;5.80;99.90;;;4.81;100.00;98568.19;4978587;28;1810;-69
2024/03/17 00:42:29;;;;;;;;;;;5.70;99.90;;;4.73;100.00;98569.94;4977431;28;2003;-70
2024/03/17 00:44:59;;;;;;;;;;;5.60;99.90;;;4.54;100.00;98576.88;4976030;28;1862;-69
2024/03/17 00:47:25;;;;;;;;;;;5.50;99.90;;;4.39;100.00;98570.03;4960289;28;1578;-69
2024/03/17 00:49:52;;;;;;;;;;;5.30;99.90;;;4.38;100.00;98564.03;4978868;28;1724;-69
2024/03/17 00:52:17;;;;;;;;;;;5.30;99.90;;;4.27;100.00;98570.91;4979385;28;1799;-69
2024/03/17 00:54:47;;;;;;;;;;;5.40;99.90;;;4.28;100.00;98575.19;4995856;28;2186;-69
2024/03/17 00:57:13;;;;;;;;;;;5.30;99.90;;;4.32;100.00;98564.06;4964368;28;1968;-69
2024/03/17 00:59:39;;;;;;;;;;;5.30;99.90;;;4.30;100.00;98568.34;4980477;28;1727;-69
2024/03/17 01:02:04;;;;;;;;;;;5.30;99.90;;;4.26;100.00;98566.63;4964310;28;1772;-69
2024/03/17 01:04:33;;;;;;;;;;;5.30;99.90;;;4.14;100.00;98569.22;4979581;28;1374;-69
2024/03/17 01:07:00;;;;;;;;;;;5.30;99.90;;;4.18;100.00;98566.63;4977479;28;3806;-69
2024/03/17 01:09:26;;;;;;;;;;;5.30;99.90;;;4.29;100.00;98563.19;4996468;28;2321;-69
2024/03/17 01:11:52;;;;;;;;;;;5.30;99.90;;;4.15;100.00;98558.06;4978083;28;1473;-69
2024/03/17 01:14:17;;;;;;;;;;;5.30;99.90;;;3.97;100.00;98559.81;4979005;28;1580;-69
2024/03/17 01:16:43;;;;;;;;;;;5.20;99.90;;;4.18;100.00;98550.38;4980760;28;2001;-69
2024/03/17 01:19:10;;;;;;;;;;;5.30;99.90;;;4.29;100.00;98546.06;4993582;28;1713;-69
2024/03/17 01:21:35;;;;;;;;;;;5.30;99.90;;;4.38;100.00;98543.47;4992945;28;1625;-69
2024/03/17 01:24:01;;;;;;;;;;;5.30;99.90;;;4.46;100.00;98553.72;4964650;28;1944;-69
2024/03/17 01:26:27;;;;;;;;;;;5.40;99.90;;;4.30;100.00;98545.19;4979592;28;1480;-69
2024/03/17 01:28:53;;;;;;;;;;;5.40;99.90;;;4.35;100.00;98548.59;4977966;28;1501;-69
2024/03/17 01:31:19;;;;;;;;;;;5.40;99.90;;;4.13;100.00;98539.25;4995791;28;1623;-69
2024/03/17 01:33:46;;;;;;;;;;;5.40;99.90;;;4.39;100.00;98531.47;4977791;28;1640;-70
2024/03/17 01:36:12;;;;;;;;;;;5.40;99.90;;;4.27;100.00;98527.22;4963693;28;2006;-69
2024/03/17 01:38:38;;;;;;;;;;;5.40;99.90;;;4.21;100.00;98524.66;4996781;28;1607;-69
2024/03/17 01:41:04;;;;;;;;;;;5.30;99.90;;;4.24;100.00;98521.22;4964911;28;1608;-69
2024/03/17 01:43:30;;;;;;;;;;;5.30;99.90;;;4.28;100.00;98515.22;4979798;28;1879;-69
2024/03/17 01:45:58;;;;;;;;;;;5.30;99.90;;;4.35;100.00;98516.91;4980996;28;1312;-70
2024/03/17 01:48:26;;;;;;;;;;;5.40;99.90;;;4.36;100.00;98510.94;4981912;28;1820;-69
2024/03/17 01:50:53;;;;;;;;;;;5.30;99.90;;;4.28;100.00;98507.50;4979608;28;3232;-69
2024/03/17 01:53:20;;;;;;;;;;;5.40;99.90;;;4.16;100.00;98506.69;4981559;28;1608;-69
2024/03/17 01:55:47;;;;;;;;;;;5.20;99.90;;;4.16;100.00;98506.69;4996727;28;1983;-69
2024/03/17 01:58:13;;;;;;;;;;;5.10;99.90;;;4.08;100.00;98495.59;4966639;28;1626;-69
2024/03/17 02:00:39;;;;;;;;;;;4.90;99.90;;;3.90;100.00;98500.72;4967827;28;1588;-69
2024/03/17 02:03:08;;;;;;;;;;;4.70;99.90;;;3.80;100.00;98499.03;5000660;28;1674;-69
2024/03/17 02:05:37;;;;;;;;;;;4.60;99.90;;;3.68;100.00;98505.03;4967172;28;2027;-70
2024/03/17 02:08:06;;;;;;;;;;;4.60;99.90;;;3.73;100.00;98500.75;4982905;28;1487;-69
2024/03/17 02:10:33;;;;;;;;;;;4.50;99.90;;;3.78;100.00;98496.47;4984925;28;1671;-70
2024/03/17 02:13:00;;;;;;;;;;;4.50;99.90;;;3.62;100.00;98489.63;4965240;28;1609;-70
2024/03/17 02:15:26;;;;;;;;;;;4.60;99.90;;;3.68;100.00;98484.50;5000349;28;1985;-69
2024/03/17 02:17:53;;;;;;;;;;;4.70;99.90;;;3.75;100.00;98481.91;4979304;28;1629;-69
2024/03/17 02:20:19;;;;;;;;;;;4.70;99.90;;;3.71;100.00;98482.75;4979636;28;1593;-69
2024/03/17 02:22:45;;;;;;;;;;;4.60;99.90;;;3.43;100.00;98484.50;5002686;28;1855;-69
2024/03/17 02:25:11;;;;;;;;;;;4.50;99.90;;;3.28;100.00;98484.47;5003142;28;1624;-69
2024/03/17 02:27:37;;;;;;;;;;;4.50;99.90;;;3.31;100.00;98485.34;4982988;28;1861;-69
2024/03/17 02:30:09;;;;;;;;;;;4.30;99.90;;;3.31;100.00;98490.47;4967602;28;1641;-69
2024/03/17 02:32:35;;;;;;;;;;;4.20;99.90;;;3.26;100.00;98497.31;4983248;28;1795;-69
2024/03/17 02:35:02;;;;;;;;;;;4.10;99.90;;;3.11;100.00;98498.13;5000507;28;1768;-69
2024/03/17 02:37:28;;;;;;;;;;;4.10;99.90;;;3.05;100.00;98500.66;4965101;28;3295;-69
2024/03/17 02:39:54;;;;;;;;;;;4.10;99.90;;;2.99;100.00;98499.81;4983861;28;1808;-69
2024/03/17 02:42:20;;;;;;;;;;;4.10;99.90;;;2.92;100.00;98499.81;4999376;28;1737;-70
2024/03/17 02:44:45;;;;;;;;;;;4.10;99.90;;;3.06;100.00;98499.84;4980588;28;2295;-69
2024/03/17 02:47:14;;;;;;;;;;;4.10;99.90;;;3.02;100.00;98499.81;4994961;28;1598;-69
2024/03/17 02:49:43;;;;;;;;;;;4.10;99.90;;;3.06;100.00;98504.13;4982685;28;1698;-69
2024/03/17 02:52:10;;;;;;;;;;;4.10;99.90;;;2.90;100.00;98501.50;4948440;28;1989;-69
2024/03/17 02:54:36;;;;;;;;;;;4.00;99.90;;;3.04;100.00;98500.69;4982631;28;1661;-69
2024/03/17 02:57:03;;;;;;;;;;;4.10;99.90;;;3.19;100.00;98507.53;4983445;28;1898;-69
2024/03/17 02:59:29;;;;;;;;;;;4.10;99.90;;;3.21;100.00;98501.56;4999786;28;1825;-69
2024/03/17 03:01:55;;;;;;;;;;;4.10;99.90;;;3.17;100.00;98499.88;4966980;28;1639;-69
2024/03/17 03:04:21;;;;;;;;;;;4.10;99.90;;;3.17;100.00;98492.16;4981240;28;1919;-69
2024/03/17 03:06:47;;;;;;;;;;;4.20;99.90;;;3.16;100.00;98498.13;4981822;28;2233;-69
2024/03/17 03:09:14;;;;;;;;;;;4.20;99.90;;;3.08;100.00;98494.69;4981057;28;2273;-69
2024/03/17 03:11:40;;;;;;;;;;;4.20;99.90;;;2.91;100.00;98494.66;4966091;28;2468;-70
2024/03/17 03:14:07;;;;;;;;;;;4.30;99.90;;;2.76;100.00;98499.75;4999455;28;1573;-69
2024/03/17 03:16:33;;;;;;;;;;;4.20;99.90;;;2.65;100.00;98497.16;4996165;28;1906;-70
2024/03/17 03:18:59;;;;;;;;;;;4.10;99.90;;;2.73;100.00;98487.75;4976649;28;1747;-69
2024/03/17 03:21:25;;;;;;;;;;;4.10;99.90;;;2.80;100.00;98491.22;4998762;28;1600;-70
2024/03/17 03:23:51;;;;;;;;;;;4.00;99.90;;;2.75;100.00;98487.78;4983255;28;1596;-69
2024/03/17 03:26:17;;;;;;;;;;;4.00;99.90;;;2.77;100.00;98489.50;4965111;28;3191;-69
2024/03/17 03:28:44;;;;;;;;;;;4.00;99.90;;;2.54;100.00;98471.47;4965396;28;1711;-69
2024/03/17 03:31:13;;;;;;;;;;;3.90;99.90;;;2.58;100.00;98470.66;4978839;28;1364;-69
2024/03/17 03:33:40;;;;;;;;;;;3.80;99.90;;;2.72;100.00;98478.38;4979214;28;1702;-69
2024/03/17 03:36:08;;;;;;;;;;;3.90;99.90;;;2.44;100.00;98482.53;4978807;28;1907;-69
2024/03/17 03:38:34;;;;;;;;;;;3.70;99.90;;;2.49;100.00;98479.16;4997088;28;1601;-69
2024/03/17 03:41:09;;;;;;;;;;;3.70;99.90;;;2.37;100.00;98480.78;4979041;28;1998;-69
2024/03/17 03:43:35;;;;;;;;;;;3.70;99.90;;;2.45;100.00;98477.41;4981717;28;1737;-70
2024/03/17 03:46:02;;;;;;;;;;;3.70;99.90;;;2.55;100.00;98474.88;4965015;28;1739;-70
2024/03/17 03:48:28;;;;;;;;;;;3.70;99.90;;;2.45;100.00;98476.56;4965385;28;1560;-69
2024/03/17 03:50:54;;;;;;;;;;;3.70;99.90;;;2.58;100.00;98473.22;4974912;28;1609;-70
2024/03/17 03:53:20;;;;;;;;;;;3.70;99.90;;;2.47;100.00;98472.31;4982291;28;1583;-69
2024/03/17 03:55:46;;;;;;;;;;;3.70;99.90;;;2.61;100.00;98480.91;4995630;28;2166;-69
2024/03/17 03:58:12;;;;;;;;;;;3.60;99.90;;;2.54;100.00;98483.44;4975730;28;1636;-70
2024/03/17 04:00:39;;;;;;;;;;;3.50;99.90;;;2.61;100.00;98480.91;4981305;28;2215;-69
2024/03/17 04:03:05;;;;;;;;;;;3.50;99.90;;;2.42;100.00;98479.13;4981149;28;1648;-69
2024/03/17 04:05:31;;;;;;;;;;;3.50;99.90;;;2.28;100.00;98492.72;4995348;28;1539;-69
2024/03/17 04:07:58;;;;;;;;;;;3.50;99.90;;;2.30;100.00;98500.41;4979164;28;3149;-69
2024/03/17 04:10:24;;;;;;;;;;;3.50;99.90;;;2.25;100.00;98485.00;4966112;28;1472;-69
2024/03/17 04:12:51;;;;;;;;;;;3.40;99.90;;;2.36;100.00;98479.09;4998836;28;1526;-69
2024/03/17 04:15:17;;;;;;;;;;;3.50;99.90;;;2.47;100.00;98483.41;4981690;28;2013;-69
2024/03/17 04:17:43;;;;;;;;;;;3.50;99.90;;;2.51;100.00;98482.56;4981752;28;1591;-70
2024/03/17 04:20:10;;;;;;;;;;;3.50;99.90;;;2.45;100.00;98471.44;4981514;28;1845;-69
2024/03/17 04:22:44;;;;;;;;;;;3.50;99.90;;;2.51;100.00;98468.91;4981012;28;1603;-69
2024/03/17 04:25:12;;;;;;;;;;;3.50;99.90;;;2.39;100.00;98459.44;4980083;28;1615;-69
2024/03/17 04:27:38;;;;;;;;;;;3.60;99.90;;;2.11;100.00;98458.47;4966030;28;1567;-69
2024/03/17 04:30:05;;;;;;;;;;;3.60;99.90;;;2.32;100.00;98467.09;4980080;28;1725;-69
2024/03/17 04:32:32;;;;;;;;;;;3.50;99.90;;;2.12;100.00;98459.31;4996704;28;1628;-69
2024/03/17 04:34:57;;;;;;;;;;;3.50;99.90;;;2.13;100.00;98459.34;4978925;28;1402;-69
2024/03/17 04:37:24;;;;;;;;;;;3.50;99.90;;;2.20;100.00;98455.94;4979168;28;1943;-69
2024/03/17 04:39:50;;;;;;;;;;;3.50;99.90;;;2.17;100.00;98453.38;4981407;28;1750;-69
2024/03/17 04:42:20;;;;;;;;;;;3.40;99.90;;;2.23;100.00;98457.66;4981959;28;1593;-69
2024/03/17 04:44:46;;;;;;;;;;;3.40;99.90;;;2.14;100.00;98453.34;4965047;28;1572;-69
2024/03/17 04:47:12;;;;;;;;;;;3.40;99.90;;;2.02;100.00;98456.72;4981860;28;1591;-69
2024/03/17 04:49:42;;;;;;;;;;;3.40;99.90;;;1.92;100.00;98466.91;4982015;28;1634;-70
2024/03/17 04:52:10;;;;;;;;;;;3.30;99.90;;;1.94;100.00;98463.50;4963671;28;3592;-69
2024/03/17 04:54:36;;;;;;;;;;;3.20;99.90;;;1.98;100.00;98456.69;4996591;28;1638;-69
2024/03/17 04:57:02;;;;;;;;;;;3.20;99.90;;;2.00;100.00;98460.97;4995671;28;1981;-69
2024/03/17 04:59:28;;;;;;;;;;;3.20;99.90;;;1.86;100.00;98455.75;4979141;28;2238;-69
2024/03/17 05:01:54;;;;;;;;;;;3.20;99.90;;;1.89;100.00;98447.25;4963524;28;1849;-69
2024/03/17 05:04:20;;;;;;;;;;;3.20;99.90;;;1.85;100.00;98445.53;4977955;28;1939;-69
2024/03/17 05:06:46;;;;;;;;;;;3.20;99.90;;;1.91;100.00;98449.81;4978002;28;2258;-69
2024/03/17 05:09:16;;;;;;;;;;;3.10;99.90;;;1.55;100.00;98444.47;4980411;28;2464;-69
2024/03/17 05:11:42;;;;;;;;;;;3.00;99.90;;;1.50;100.00;98445.28;4968697;28;2311;-69
2024/03/17 05:14:08;;;;;;;;;;;3.00;99.90;;;1.34;100.00;98454.53;5000846;28;1647;-69
2024/03/17 05:16:34;;;;;;;;;;;2.90;99.90;;;1.56;100.00;98448.75;4999274;28;1902;-70
2024/03/17 05:19:01;;;;;;;;;;;2.90;99.90;;;1.66;100.00;98450.50;4968380;28;1589;-70
2024/03/17 05:21:30;;;;;;;;;;;2.90;99.90;;;1.66;100.00;98453.06;4981586;28;1650;-69
2024/03/17 05:23:59;;;;;;;;;;;2.90;99.90;;;1.58;100.00;98454.72;4997731;28;1607;-70
2024/03/17 05:26:26;;;;;;;;;;;2.90;99.90;;;1.55;100.00;98453.84;4999406;28;1957;-69
2024/03/17 05:28:52;;;;;;;;;;;2.90;99.90;;;1.64;100.00;98456.47;4964655;28;1434;-69
2024/03/17 05:31:18;;;;;;;;;;;2.90;99.90;;;1.65;100.00;98458.19;4983103;28;1495;-69
2024/03/17 05:33:44;;;;;;;;;;;2.90;99.90;;;1.65;100.00;98455.63;4983021;28;1719;-69
2024/03/17 05:36:10;;;;;;;;;;;2.90;99.90;;;1.56;100.00;98456.41;4976983;28;1906;-69
2024/03/17 05:38:36;;;;;;;;;;;2.90;99.90;;;1.59;100.00;98463.25;4965867;28;2045;-69
2024/03/17 05:41:06;;;;;;;;;;;2.80;99.90;;;1.54;100.00;98459.81;4968727;28;3144;-69
2024/03/17 05:43:37;;;;;;;;;;;2.80;99.90;;;1.35;100.00;98457.13;4998411;28;1654;-69
2024/03/17 05:46:15;;;;;;;;;;;2.80;99.90;;;1.31;100.00;98454.53;4967501;28;1868;-70
2024/03/17 05:48:41;;;;;;;;;;;2.70;99.90;;;1.32;100.00;98454.50;4984928;28;1611;-69
2024/03/17 05:51:08;;;;;;;;;;;2.70;99.90;;;1.37;100.00;98455.44;4997888;28;1284;-69
2024/03/17 05:53:35;;;;;;;;;;;2.70;99.90;;;1.45;100.00;98458.03;4984135;28;1978;-69
2024/03/17 05:56:02;;;;;;;;;;;2.70;99.90;;;1.50;100.00;98452.94;4994812;28;1902;-69
2024/03/17 05:58:28;;;;;;;;;;;2.70;99.90;;;1.47;100.00;98453.78;4981319;28;1557;-69
2024/03/17 06:00:55;;;;;;;;;;;2.80;99.90;;;1.58;100.00;98447.06;4968638;28;1408;-69
2024/03/17 06:03:21;;;;;;;;;;;2.80;99.90;;;1.70;100.00;98450.53;4998506;28;2211;-69
2024/03/17 06:05:47;;;;;;;;;;;2.80;99.90;;;1.85;100.00;98453.22;4965007;28;1602;-69
2024/03/17 06:08:14;;;;;;;;;;;2.80;99.90;;;1.61;100.00;98448.78;4997830;28;1988;-69
2024/03/17 06:10:46;;;;;;;;;;;2.80;99.90;;;1.52;100.00;98461.50;5000496;28;1827;-69
2024/03/17 06:13:13;;;;;;;;;;;2.80;99.90;;;1.63;100.00;98452.19;4982112;28;1626;-70
2024/03/17 06:15:39;;;;;;;;;;;2.80;99.90;;;1.81;100.00;98464.28;4995706;28;2001;-69
2024/03/17 06:18:08;;;;;;;;;;;2.90;99.90;;;1.86;100.00;98460.88;4980428;28;1435;-69
2024/03/17 06:20:34;;;;;;;;;;;3.10;99.90;;;2.08;100.00;98461.88;4998003;28;1620;-69
2024/03/17 06:23:00;;;;;;;;;;;3.10;99.90;;;2.29;100.00;98456.00;4982903;28;3118;-69
2024/03/17 06:25:27;;;;;;;;;;;3.20;99.90;;;2.09;100.00;98450.78;4979406;28;1782;-69
2024/03/17 06:27:54;;;;;;;;;;;3.30;99.90;;;2.22;100.00;98451.69;4980606;28;1594;-69
2024/03/17 06:30:21;;;;;;;;;;;3.30;99.90;;;2.37;100.00;98452.59;4985230;28;1650;-69
2024/03/17 06:32:47;;;;;;;;;;;3.30;99.90;;;2.58;100.00;98452.69;4996700;28;1786;-69
2024/03/17 06:35:18;;;;;;;;;;;3.50;99.90;;;2.82;100.00;98448.50;4983096;28;1927;-69
2024/03/17 06:37:47;;;;;;;;;;;3.50;99.90;;;2.93;100.00;98444.25;4982602;28;1914;-69
2024/03/17 06:40:14;;;;;;;;;;;3.70;99.90;;;2.94;100.00;98438.25;4995807;28;1795;-69
2024/03/17 06:42:41;;;;;;;;;;;3.70;99.90;;;2.71;100.00;98435.63;4981400;28;1558;-69
2024/03/17 06:45:10;;;;;;;;;;;3.70;99.90;;;2.87;100.00;98429.72;4996642;28;1555;-69
2024/03/17 06:47:37;;;;;;;;;;;3.80;99.90;;;2.97;100.00;98432.28;4984220;28;1587;-69
2024/03/17 06:50:09;;;;;;;;;;;3.90;99.90;;;3.19;100.00;98430.59;4985634;28;1955;-70
2024/03/17 06:52:36;;;;;;;;;;;3.80;99.90;;;3.20;100.00;98437.44;4997030;28;1606;-69
2024/03/17 06:55:03;;;;;;;;;;;3.90;99.90;;;3.38;100.00;98427.19;4979721;28;1586;-69
2024/03/17 06:57:29;;;;;;;;;;;4.10;99.90;;;3.64;100.00;98431.44;4963782;28;2001;-69
2024/03/17 06:59:54;;;;;;;;;;;4.20;99.90;;;3.81;100.00;98419.44;4979903;28;1709;-69
2024/03/17 07:02:21;;;;;;;;;;;4.40;99.90;;;3.55;100.00;98427.16;4981819;28;1422;-70
2024/03/17 07:04:47;;;;;;;;;;;4.60;99.90;;;3.78;100.00;98419.41;4981308;28;3194;-69
2024/03/17 07:07:14;;;;;;;;;;;4.70;99.90;;;3.85;100.00;98415.13;4980255;28;2272;-69
2024/03/17 07:09:40;;;;;;;;;;;4.70;99.90;;;4.03;100.00;98409.94;4980808;28;2316;-69
2024/03/17 07:12:10;;;;;;;;;;;4.80;99.90;;;3.81;100.00;98421.13;4964693;28;2284;-70
2024/03/17 07:14:37;;;;;;;;;;;4.90;99.90;;;3.88;100.00;98421.13;4994727;28;1781;-69
2024/03/17 07:17:03;;;;;;;;;;;4.90;99.90;;;4.32;100.00;98414.13;4962096;28;1907;-70
2024/03/17 07:19:30;;;;;;;;;;;5.00;99.90;;;4.43;100.00;98417.50;4992833;28;1653;-69
2024/03/17 07:22:00;;;;;;;;;;;5.00;99.90;;;4.31;100.00;98427.81;5000591;28;1650;-70
2024/03/17 07:24:25;;;;;;;;;;;5.10;99.90;;;4.65;100.00;98430.25;4983107;28;2066;-70
2024/03/17 07:26:51;;;;;;;;;;;5.20;99.90;;;4.56;100.00;98418.28;4997360;28;1354;-69
2024/03/17 07:29:19;;;;;;;;;;;5.30;99.90;;;4.55;100.00;98429.44;4980462;28;1596;-69
2024/03/17 07:31:45;;;;;;;;;;;5.40;99.90;;;4.69;100.00;98424.22;4996508;28;2333;-69
2024/03/17 07:34:11;;;;;;;;;;;5.50;99.90;;;4.79;100.00;98419.03;4977775;28;1622;-69
2024/03/17 07:36:37;;;;;;;;;;;5.60;99.90;;;5.23;100.00;98417.88;4997150;28;1993;-69
2024/03/17 07:39:02;;;;;;;;;;;5.60;99.90;;;5.19;100.00;98412.75;4982281;28;2168;-69
2024/03/17 07:41:28;;;;;;;;;;;5.70;99.90;;;5.23;100.00;98405.00;4997486;28;1613;-69
2024/03/17 07:43:54;;;;;;;;;;;5.80;99.90;;;5.54;100.00;98409.91;4982297;28;1419;-69
2024/03/17 07:46:20;;;;;;;;;;;6.00;99.90;;;5.35;100.00;98406.59;4998055;28;1625;-70
2024/03/17 07:48:46;;;;;;;;;;;6.10;99.90;;;5.32;100.00;98411.78;4979717;28;1673;-69
2024/03/17 07:51:19;;;;;;;;;;;6.20;99.90;;;5.32;100.00;98411.78;4995853;28;1496;-69
2024/03/17 07:53:47;;;;;;;;;;;6.30;99.90;;;5.42;100.00;98413.41;4997273;28;3131;-69
2024/03/17 07:56:14;;;;;;;;;;;6.30;99.90;;;5.72;100.00;98408.00;4996102;28;1902;-69
2024/03/17 07:58:42;;;;;;;;;;;6.40;99.90;;;5.89;100.00;98411.28;4965982;28;1578;-69
2024/03/17 08:01:12;;;;;;;;;;;6.50;99.90;;;6.11;100.00;98408.47;4995354;28;1580;-70
2024/03/17 08:03:40;;;;;;;;;;;6.70;99.90;;;6.14;100.00;98409.31;4975523;28;1692;-70
2024/03/17 08:06:07;;;;;;;;;;;6.90;99.90;;;6.42;100.00;98411.56;4979514;28;1670;-69
2024/03/17 08:08:35;;;;;;;;;;;7.00;99.90;;;6.82;100.00;98404.13;4978621;28;1963;-69
2024/03/17 08:11:03;;;;;;;;;;;7.30;99.90;;;7.81;100.00;98394.78;4979366;28;1843;-70
2024/03/17 08:13:33;;;;;;;;;;;8.00;99.90;;;8.09;100.00;98385.59;4979601;28;2145;-69
2024/03/17 08:16:01;;;;;;;;;;;8.80;99.90;;;8.68;100.00;98367.16;4977383;28;1922;-70
2024/03/17 08:18:27;;;;;;;;;;;9.40;99.90;;;9.05;100.00;98358.53;4995267;28;1496;-70
2024/03/17 08:20:56;;;;;;;;;;;9.80;99.90;;;9.24;100.00;98337.38;4996006;28;2141;-69
2024/03/17 08:23:23;;;;;;;;;;;10.40;99.90;;;8.92;100.00;98326.94;4982064;28;1619;-69
2024/03/17 08:25:53;;;;;;;;;;;10.70;99.90;;;9.05;100.00;98331.81;4998180;28;1539;-70
2024/03/17 08:28:21;;;;;;;;;;;10.90;99.90;;;9.72;100.00;98327.50;4997352;28;1774;-70
2024/03/17 08:30:57;;;;;;;;;;;11.10;99.90;;;9.49;100.00;98319.47;4994799;28;1579;-70
2024/03/17 08:33:23;;;;;;;;;;;10.90;99.90;;;9.55;100.00;98319.31;4998953;28;1431;-69
2024/03/17 08:36:07;;;;;;;;;;;10.90;99.90;;;10.22;100.00;98301.03;4979158;28;2925;-70
2024/03/17 08:38:34;;;;;;;;;;;11.10;99.90;;;10.27;100.00;98301.72;4995354;28;1615;-70
2024/03/17 08:41:08;;;;;;;;;;;11.40;99.90;;;10.82;100.00;98302.66;4978563;28;1654;-70
2024/03/17 08:43:35;;;;;;;;;;;11.80;99.90;;;11.37;100.00;98296.53;4994820;28;1642;-70
2024/03/17 08:46:03;;;;;;;;;;;11.90;99.90;;;10.93;100.00;98289.31;4978582;28;1977;-70
2024/03/17 08:48:31;;;;;;;;;;;12.00;99.90;;;11.45;100.00;98286.72;4994371;28;1689;-69
2024/03/17 08:50:58;;;;;;;;;;;12.40;99.90;;;12.22;100.00;98269.19;4963052;28;2000;-70
2024/03/17 08:53:24;;;;;;;;;;;12.70;99.90;;;12.62;100.00;98267.66;4978132;28;1766;-70
2024/03/17 08:55:51;;;;;;;;;;;12.90;99.90;;;13.38;100.00;98257.59;4979580;28;1985;-70
2024/03/17 08:58:17;;;;;;;;;;;12.90;99.90;;;12.54;100.00;98261.88;4976073;28;1670;-70
2024/03/17 09:00:43;;;;;;;;;;;13.10;99.90;;;12.79;100.00;98261.75;4995559;28;1479;-70
2024/03/17 09:03:10;;;;;;;;;;;;;;;12.60;100.00;98258.19;4977458;28;1832;-70
2024/03/17 09:05:36;;;;;;;;;;;13.70;99.90;;;12.64;100.00;98262.38;4993709;28;1754;-70
2024/03/17 09:08:03;;;;;;;;;;;13.70;99.90;;;12.84;100.00;98270.25;4976829;28;2340;-70
2024/03/17 09:10:29;;;;;;;;;;;13.70;99.90;;;12.66;100.00;98278.81;4995190;28;2300;-70
2024/03/17 09:12:55;;;;;;;;;;;13.60;99.90;;;12.65;100.00;98288.34;4977367;28;1630;-70
2024/03/17 09:15:21;;;;;;;;;;;13.70;99.90;;;11.89;100.00;98287.75;4981547;28;1664;-70
2024/03/17 09:17:47;;;;;;;;;;;13.10;99.90;;;11.95;100.00;98285.84;4977952;28;1902;-70
2024/03/17 09:20:14;;;;;;;;;;;12.70;99.90;;;11.92;100.00;98297.19;4976647;28;1603;-70
2024/03/17 09:22:43;;;;;;;;;;;12.60;99.90;;;12.19;100.00;98287.53;4979184;28;1478;-70
2024/03/17 09:25:09;;;;;;;;;;;12.70;99.90;;;11.42;100.00;98297.22;4994257;28;4287;-70
2024/03/17 09:27:38;;;;;;;;;;;12.80;99.90;;;11.15;100.00;98302.44;4994559;28;1824;-70
2024/03/17 09:30:11;;;;;;;;;;;12.30;99.90;;;11.68;100.00;98304.13;4994886;28;1458;-70
2024/03/17 09:32:37;;;;;;;;;;;12.50;99.90;;;12.16;100.00;98292.84;4992898;28;1486;-70
2024/03/17 09:35:04;;;;;;;;;;;12.90;99.90;;;12.74;100.00;98287.97;4994795;28;1867;-70
2024/03/17 09:37:31;;;;;;;;;;;13.40;99.90;;;12.76;100.00;98283.56;4994385;28;2034;-70
2024/03/17 09:39:59;;;;;;;;;;;14.00;99.90;;;13.36;100.00;98277.66;4964675;28;1539;-70
2024/03/17 09:42:29;;;;;;;;;;;14.10;99.90;;;14.19;100.00;98261.78;4988092;28;1606;-69
2024/03/17 09:44:56;;;;;;;;;;;14.70;99.90;;;15.05;100.00;98257.72;4994510;28;1467;-70
2024/03/17 09:47:23;;;;;;;;;;;15.00;99.90;;;13.79;100.00;98247.09;4975992;28;1611;-69
2024/03/17 09:49:50;;;;;;;;;;;14.70;99.90;;;13.11;100.00;98249.16;4963866;28;1710;-69
2024/03/17 09:52:25;;;;;;;;;;;13.60;99.90;;;12.82;100.00;98260.75;4995696;28;2725;-69
2024/03/17 09:55:09;;;;;;;;;;;13.10;99.90;;;12.37;100.00;98272.97;4966848;28;1639;-70
2024/03/17 09:57:39;;;;;;;;;;;13.00;99.90;;;12.18;100.00;98284.97;4957720;28;1934;-69
2024/03/17 10:00:13;;;;;;;;;;;13.10;99.90;;;12.79;100.00;98290.41;4977243;28;1628;-69
2024/03/17 10:02:45;;;;;;;;;;;13.20;99.90;;;12.35;100.00;98280.81;4968654;28;1455;-69
2024/03/17 10:05:24;;;;;;;;;;;12.90;99.90;;;12.21;100.00;98280.50;5004029;28;1797;-69
2024/03/17 10:07:50;;;;;;;;;;;13.10;99.90;;;12.07;100.00;98272.38;4981658;28;1615;-69
2024/03/17 10:10:18;;;;;;;;;;;13.00;99.90;;;12.33;100.00;98281.78;4963359;28;1552;-70
2024/03/17 10:12:49;;;;;;;;;;;12.40;99.90;;;11.86;100.00;98290.44;4974230;28;1542;-70
2024/03/17 10:15:15;;;;;;;;;;;12.50;99.90;;;11.91;100.00;98311.13;4954276;28;1384;-70
2024/03/17 10:17:40;;;;;;;;;;;12.50;99.90;;;12.01;100.00;98303.81;4975828;28;1898;-69
2024/03/17 10:20:17;;;;;;;;;;;12.30;99.90;;;12.16;100.00;98294.59;4979669;28;1623;-69
2024/03/17 10:23:05;;;;;;;;;;;12.50;99.90;;;12.27;100.00;98290.69;4996944;28;1399;-69
2024/03/17 10:25:33;;;;;;;;;;;12.70;99.90;;;12.22;100.00;98287.41;4966892;28;1668;-70
2024/03/17 10:28:01;;;;;;;;;;;12.90;99.90;;;12.63;100.00;98281.50;4980665;28;1757;-69
2024/03/17 10:30:29;;;;;;;;;;;12.80;99.90;;;12.88;100.00;98281.38;4978278;28;1867;-70
2024/03/17 10:33:00;;;;;;;;;;;13.00;99.90;;;12.65;100.00;98267.50;4980902;28;1803;-70
2024/03/17 10:35:31;;;;;;;;;;;13.10;99.90;;;12.93;100.00;98266.38;4995428;28;1614;-69
2024/03/17 10:38:03;;;;;;;;;;;13.10;99.90;;;12.66;100.00;98274.44;4963531;28;1906;-70
2024/03/17 10:40:30;;;;;;;;;;;12.90;99.90;;;12.85;100.00;98263.25;4994802;28;1510;-70
2024/03/17 10:42:57;;;;;;;;;;;12.60;99.90;;;12.66;100.00;98257.97;4982658;28;1592;-70
2024/03/17 10:45:24;;;;;;;;;;;12.60;99.90;;;12.94;100.00;98261.13;4965430;28;1611;-70
2024/03/17 10:47:51;;;;;;;;;;;12.80;99.90;;;12.51;100.00;98267.22;4980440;28;1597;-69
2024/03/17 10:50:22;;;;;;;;;;;12.90;99.90;;;12.14;100.00;98259.06;4963420;28;1465;-69
2024/03/17 10:52:52;;;;;;;;;;;12.90;99.90;;;12.92;100.00;98262.09;4978540;28;1760;-69
2024/03/17 10:55:22;;;;;;;;;;;13.20;99.90;;;12.90;100.00;98258.72;4979284;28;1627;-70
2024/03/17 10:57:49;;;;;;;;;;;13.20;99.90;;;13.00;100.00;98251.34;4962170;28;1934;-70
2024/03/17 11:00:22;;;;;;;;;;;13.10;99.90;;;12.93;100.00;98241.19;4979871;28;1665;-69
2024/03/17 11:02:52;;;;;;;;;;;12.80;99.90;;;13.00;100.00;98230.50;4980333;28;1566;-70
2024/03/17 11:05:24;;;;;;;;;;;12.50;99.90;;;12.85;100.00;98237.22;4985422;28;1514;-70
2024/03/17 11:07:51;;;;;;;;;;;12.30;99.90;;;12.65;100.00;98230.22;4966293;28;1536;-70
2024/03/17 11:10:26;;;;;;;;;;;12.60;99.90;;;12.13;100.00;98248.72;4978236;28;1610;-70
2024/03/17 11:12:58;;;;;;;;;;;12.80;99.90;;;13.03;100.00;98248.63;4976238;28;1609;-69
2024/03/17 11:15:33;;;;;;;;;;;13.10;99.90;;;13.13;100.00;98242.94;4964163;28;1606;-69
2024/03/17 11:18:11;;;;;;;;;;;13.40;99.90;;;13.37;100.00;98235.03;4990339;28;2165;-69
2024/03/17 11:20:39;;;;;;;;;;;13.60;99.90;;;13.26;100.00;98234.63;4982933;28;1930;-70
2024/03/17 11:23:06;;;;;;;;;;;13.70;99.90;;;13.49;100.00;98234.50;4995551;28;1478;-70
2024/03/17 11:25:33;;;;;;;;;;;13.90;99.90;;;13.45;100.00;98234.69;4961314;28;1777;-69
2024/03/17 11:28:00;;;;;;;;;;;13.90;99.90;;;13.08;100.00;98241.47;4992738;28;1543;-70
2024/03/17 11:30:46;;;;;;;;;;;13.80;99.90;;;13.25;100.00;98244.22;4992554;28;1622;-70